OK15 weather

Avian Country Estates Airport
Oolagah, Oklahoma, United States

Public forecast

Using degrees Fahrenheit for public forecast. Weather courtesy of forecast.io.

Closest aviation weather report (METAR) to Avian Country Estates Airport

Closest report is Claremore Regional Airport, 12.0 nm (22.2 km) ESE. Retrieved 2020/02/18 02:55 UTC (25 minutes ago):

KGCM 180255Z AUTO 05004KT 7SM CLR 09/06 A2990 RMK AO2

Closest aviation forecast (TAF) to Avian Country Estates Airport

Closest forecast is Tulsa International Airport, 13.9 nm (25.7 km) SW. Retrieved 2020-02-18 00:28 UTC (3 hours ago):

TAF KTUL 172326Z 1800/1824 33009KT P6SM FEW050 SCT250 FM180800 36013G21KT P6SM BKN100 FM181200 01013G22KT P6SM SCT015 BKN100 FM181800 01013G20KT P6SM SCT050 BKN100